Time;durP1;ratioP1;P1;durP2;ratioP2;P2;SDS_P1;SDS_P2;PMS_P1;PMS_P2;Temp;Humidity;BMP_temperature;BMP_pressure;BME280_temperature;BME280_humidity;BME280_pressure;Samples;Min_cycle;Max_cycle;Signal;HPM_P1;HPM_P2
2021/12/29 00:02:00;;;;;;;;;;;9.40;99.90;;;;;;5027240;28;19917;-72
2021/12/29 00:04:27;;;;;;;;;;;9.40;99.90;;;;;;5025625;28;19917;-69
2021/12/29 00:06:56;;;;;;;;;;;9.40;99.90;;;;;;5027886;28;19913;-71
2021/12/29 00:09:22;;;;;;;;;;;9.40;99.90;;;;;;5045435;28;19912;-71
2021/12/29 00:11:47;;;;;;;;;;;9.40;99.90;;;;;;5036206;28;19913;-71
2021/12/29 00:14:13;;;;;;;;;;;9.40;99.90;;;;;;5025532;28;19913;-70
2021/12/29 00:16:38;;;;;;;;;;;9.50;99.90;;;;;;5025719;28;19944;-68
2021/12/29 00:19:05;;;;;;;;;;;9.50;99.90;;;;;;5024738;28;19913;-68
2021/12/29 00:21:32;;;;;;;;;;;9.50;99.90;;;;;;5009057;28;20202;-69
2021/12/29 00:23:59;;;;;;;;;;;9.50;99.90;;;;;;5011196;28;20366;-70
2021/12/29 00:26:25;;;;;;;;;;;9.50;99.90;;;;;;5026809;28;20508;-69
2021/12/29 00:28:50;;;;;;;;;;;9.50;99.90;;;;;;5029876;28;19997;-70
2021/12/29 00:31:16;;;;;;;;;;;9.50;99.90;;;;;;5043276;28;20028;-71
2021/12/29 00:33:41;;;;;;;;;;;9.50;99.90;;;;;;5052988;28;20348;-69
2021/12/29 00:36:07;;;;;;;;;;;9.50;99.90;;;;;;5045616;28;19963;-71
2021/12/29 00:38:32;;;;;;;;;;;9.50;99.90;;;;;;5036574;28;19951;-70
2021/12/29 00:40:58;;;;;;;;;;;9.50;99.90;;;;;;5049200;28;20176;-69
2021/12/29 00:43:23;;;;;;;;;;;9.40;99.90;;;;;;5054926;28;20251;-70
2021/12/29 00:45:50;;;;;;;;;;;9.50;99.90;;;;;;5045151;28;19916;-72
2021/12/29 00:48:17;;;;;;;;;;;9.40;99.90;;;;;;5044327;28;19912;-72
2021/12/29 00:50:43;;;;;;;;;;;9.40;99.90;;;;;;5044285;28;20087;-70
2021/12/29 00:53:09;;;;;;;;;;;9.40;99.90;;;;;;5047557;28;20062;-72
2021/12/29 00:55:34;;;;;;;;;;;9.40;99.90;;;;;;5050481;28;19953;-69
2021/12/29 00:58:01;;;;;;;;;;;9.40;99.90;;;;;;5028846;28;19944;-69
2021/12/29 01:00:28;;;;;;;;;;;9.30;99.90;;;;;;5030894;28;19936;-70
2021/12/29 01:02:53;;;;;;;;;;;9.30;99.90;;;;;;5026490;28;20371;-69
2021/12/29 01:05:19;;;;;;;;;;;9.40;99.90;;;;;;5029928;28;20022;-70
2021/12/29 01:07:44;;;;;;;;;;;9.30;99.90;;;;;;5033584;28;19917;-70
2021/12/29 01:10:11;;;;;;;;;;;9.30;99.90;;;;;;5029935;28;20233;-69
2021/12/29 01:12:37;;;;;;;;;;;9.30;99.90;;;;;;5029201;28;20355;-70
2021/12/29 01:15:03;;;;;;;;;;;9.30;99.90;;;;;;5021020;28;19971;-69
2021/12/29 01:17:31;;;;;;;;;;;9.30;99.90;;;;;;5010748;28;20169;-69
2021/12/29 01:19:57;;;;;;;;;;;9.30;99.90;;;;;;5026496;28;20426;-69
2021/12/29 01:22:22;;;;;;;;;;;9.30;99.90;;;;;;5037046;28;19967;-70
2021/12/29 01:24:49;;;;;;;;;;;9.30;99.90;;;;;;5043782;28;19944;-69
2021/12/29 01:27:14;;;;;;;;;;;9.30;99.90;;;;;;5040565;28;20011;-70
2021/12/29 01:29:40;;;;;;;;;;;9.30;99.90;;;;;;5035023;28;19921;-72
2021/12/29 01:32:06;;;;;;;;;;;9.30;99.90;;;;;;5025920;28;19913;-71
2021/12/29 01:34:32;;;;;;;;;;;9.30;99.90;;;;;;5033224;28;20423;-70
2021/12/29 01:36:58;;;;;;;;;;;9.30;99.90;;;;;;5036321;28;19964;-70
2021/12/29 01:39:23;;;;;;;;;;;9.30;99.90;;;;;;5029872;28;20014;-70
2021/12/29 01:41:50;;;;;;;;;;;9.30;99.90;;;;;;5014779;28;19917;-71
2021/12/29 01:44:17;;;;;;;;;;;9.30;99.90;;;;;;5010201;28;19913;-70
2021/12/29 01:46:43;;;;;;;;;;;9.30;99.90;;;;;;5028406;28;19909;-70
2021/12/29 01:49:09;;;;;;;;;;;9.30;99.90;;;;;;5030083;28;19956;-70
2021/12/29 01:51:36;;;;;;;;;;;9.20;99.90;;;;;;5033642;28;19910;-70
2021/12/29 01:54:46;;;;;;;;;;;9.30;99.90;;;;;;5035317;28;20368;-73
2021/12/29 01:56:47;;;;;;;;;;;9.20;99.90;;;;;;5029082;28;20487;-69
2021/12/29 01:59:13;;;;;;;;;;;9.20;99.90;;;;;;5012889;28;19914;-70
2021/12/29 02:01:39;;;;;;;;;;;9.20;99.90;;;;;;5029491;28;19917;-71
2021/12/29 02:04:04;;;;;;;;;;;9.20;99.90;;;;;;5010303;28;19910;-74
2021/12/29 02:06:30;;;;;;;;;;;9.20;99.90;;;;;;5028606;28;20047;-72
2021/12/29 02:08:57;;;;;;;;;;;9.20;99.90;;;;;;5026420;28;19913;-71
2021/12/29 02:11:28;;;;;;;;;;;9.20;99.90;;;;;;5027218;28;19913;-69
2021/12/29 02:13:55;;;;;;;;;;;9.30;99.90;;;;;;5010841;28;19948;-68
2021/12/29 02:16:20;;;;;;;;;;;9.20;99.90;;;;;;5027751;28;19913;-69
2021/12/29 02:18:52;;;;;;;;;;;9.30;99.90;;;;;;5029760;28;19916;-69
2021/12/29 02:21:20;;;;;;;;;;;9.20;99.90;;;;;;5035969;28;19936;-71
2021/12/29 02:24:15;;;;;;;;;;;9.20;99.90;;;;;;5016807;28;20393;-71
2021/12/29 02:26:33;;;;;;;;;;;9.20;99.90;;;;;;5032057;28;20163;-70
2021/12/29 02:29:01;;;;;;;;;;;9.20;99.90;;;;;;5029074;28;20577;-69
2021/12/29 02:31:27;;;;;;;;;;;9.20;99.90;;;;;;5051541;28;19927;-69
2021/12/29 02:33:52;;;;;;;;;;;9.10;99.90;;;;;;5007813;28;20000;-68
2021/12/29 02:36:19;;;;;;;;;;;9.10;99.90;;;;;;5014149;28;20373;-69
2021/12/29 02:38:49;;;;;;;;;;;9.10;99.90;;;;;;5031077;28;19924;-68
2021/12/29 02:41:15;;;;;;;;;;;9.10;99.90;;;;;;5023121;28;19947;-69
2021/12/29 02:43:41;;;;;;;;;;;9.10;99.90;;;;;;5011826;28;19913;-70
2021/12/29 02:46:12;;;;;;;;;;;9.10;99.90;;;;;;5021418;28;20425;-70
2021/12/29 02:48:41;;;;;;;;;;;9.10;99.90;;;;;;5016231;28;19909;-69
2021/12/29 02:51:08;;;;;;;;;;;9.10;99.90;;;;;;5043092;28;19985;-69
2021/12/29 02:53:34;;;;;;;;;;;9.10;99.90;;;;;;5018319;28;19975;-70
2021/12/29 02:56:00;;;;;;;;;;;9.00;99.90;;;;;;5045391;28;19971;-70
2021/12/29 02:58:25;;;;;;;;;;;9.10;99.90;;;;;;5045270;28;20361;-70
2021/12/29 03:00:53;;;;;;;;;;;9.10;99.90;;;;;;5027560;28;19909;-74
2021/12/29 03:03:20;;;;;;;;;;;9.00;99.90;;;;;;5011621;28;19920;-74
2021/12/29 03:05:46;;;;;;;;;;;9.10;99.90;;;;;;5031276;28;19913;-71
2021/12/29 03:08:13;;;;;;;;;;;9.10;99.90;;;;;;5036976;28;19937;-72
2021/12/29 03:10:39;;;;;;;;;;;9.00;99.90;;;;;;5037671;28;19913;-70
2021/12/29 03:13:05;;;;;;;;;;;9.00;99.90;;;;;;5044131;28;19913;-69
2021/12/29 03:15:30;;;;;;;;;;;9.00;99.90;;;;;;5042020;28;20277;-73
2021/12/29 03:17:56;;;;;;;;;;;9.00;99.90;;;;;;5046006;28;19913;-69
2021/12/29 03:20:21;;;;;;;;;;;9.00;99.90;;;;;;5045564;28;19952;-70
2021/12/29 03:22:47;;;;;;;;;;;9.10;99.90;;;;;;5052554;28;20763;-71
2021/12/29 03:25:13;;;;;;;;;;;9.10;99.90;;;;;;5044913;28;19913;-70
2021/12/29 03:27:38;;;;;;;;;;;9.10;99.90;;;;;;5033570;28;20551;-69
2021/12/29 03:30:04;;;;;;;;;;;9.00;99.90;;;;;;5037423;28;20014;-69
2021/12/29 03:32:43;;;;;;;;;;;9.00;99.90;;;;;;5032081;28;19982;-71
2021/12/29 03:35:09;;;;;;;;;;;9.10;99.90;;;;;;5033898;28;20011;-71
2021/12/29 03:37:35;;;;;;;;;;;9.00;99.90;;;;;;5032298;28;19920;-70
2021/12/29 03:40:01;;;;;;;;;;;9.00;99.90;;;;;;5018826;28;20320;-68
2021/12/29 03:42:26;;;;;;;;;;;9.00;99.90;;;;;;5017514;28;19920;-72
2021/12/29 03:44:52;;;;;;;;;;;9.00;99.90;;;;;;5033423;28;19966;-70
2021/12/29 03:47:17;;;;;;;;;;;9.00;99.90;;;;;;5027528;28;20365;-70
2021/12/29 03:49:43;;;;;;;;;;;8.90;99.90;;;;;;5039236;28;19909;-71
2021/12/29 03:52:08;;;;;;;;;;;9.00;99.90;;;;;;5033843;28;19944;-68
2021/12/29 03:54:34;;;;;;;;;;;8.90;99.90;;;;;;5025019;28;20290;-71
2021/12/29 03:57:02;;;;;;;;;;;8.90;99.90;;;;;;5026592;28;19940;-70
2021/12/29 03:59:28;;;;;;;;;;;9.00;99.90;;;;;;5023007;28;19914;-70
2021/12/29 04:01:54;;;;;;;;;;;8.90;99.90;;;;;;5025437;28;19968;-70
2021/12/29 04:04:19;;;;;;;;;;;9.00;99.90;;;;;;5028714;28;20437;-70
2021/12/29 04:06:45;;;;;;;;;;;9.00;99.90;;;;;;5044662;28;19917;-69
2021/12/29 04:09:11;;;;;;;;;;;8.90;99.90;;;;;;5030962;28;19924;-70
2021/12/29 04:11:36;;;;;;;;;;;8.90;99.90;;;;;;5026454;28;19920;-72
2021/12/29 04:14:01;;;;;;;;;;;8.90;99.90;;;;;;5033253;28;20270;-70
2021/12/29 04:16:27;;;;;;;;;;;8.90;99.90;;;;;;5025323;28;19967;-69
2021/12/29 04:19:06;;;;;;;;;;;8.90;99.90;;;;;;5032482;28;19933;-69
2021/12/29 04:21:32;;;;;;;;;;;8.90;99.90;;;;;;5017118;28;20400;-71
2021/12/29 04:23:57;;;;;;;;;;;8.90;99.90;;;;;;5027457;28;20128;-69
2021/12/29 04:26:23;;;;;;;;;;;8.90;99.90;;;;;;5048697;28;19939;-73
2021/12/29 04:28:48;;;;;;;;;;;8.90;99.90;;;;;;5058590;28;19916;-71
2021/12/29 04:31:13;;;;;;;;;;;8.90;99.90;;;;;;5067495;28;19916;-72
2021/12/29 04:33:39;;;;;;;;;;;8.90;99.90;;;;;;5053393;28;19971;-70
2021/12/29 04:36:06;;;;;;;;;;;8.90;99.90;;;;;;5038730;28;19921;-68
2021/12/29 04:38:32;;;;;;;;;;;8.90;99.90;;;;;;5060336;28;19913;-69
2021/12/29 04:40:57;;;;;;;;;;;8.90;99.90;;;;;;5053078;28;19936;-70
2021/12/29 04:43:23;;;;;;;;;;;8.90;99.90;;;;;;5047227;28;19995;-71
2021/12/29 04:45:50;;;;;;;;;;;8.80;99.90;;;;;;5046375;28;19917;-70
2021/12/29 04:48:16;;;;;;;;;;;8.90;99.90;;;;;;5032003;28;20363;-71
2021/12/29 04:50:49;;;;;;;;;;;8.90;99.90;;;;;;5033608;28;20583;-71
2021/12/29 04:53:15;;;;;;;;;;;8.80;99.90;;;;;;5027074;28;19928;-69
2021/12/29 04:55:45;;;;;;;;;;;8.70;99.90;;;;;;5018213;28;20326;-69
2021/12/29 04:58:11;;;;;;;;;;;8.90;99.90;;;;;;5025691;28;19917;-70
2021/12/29 05:00:36;;;;;;;;;;;8.80;99.90;;;;;;5024380;28;20023;-69
2021/12/29 05:03:03;;;;;;;;;;;8.80;99.90;;;;;;5025148;28;20362;-70
2021/12/29 05:10:42;;;;;;;;;;;8.80;99.90;;;;;;5025047;28;19916;-73
2021/12/29 05:13:07;;;;;;;;;;;8.90;99.90;;;;;;5007623;28;19913;-70
2021/12/29 05:15:33;;;;;;;;;;;8.90;99.90;;;;;;5026227;28;19921;-70
2021/12/29 05:17:59;;;;;;;;;;;8.90;99.90;;;;;;5033924;28;19963;-71
2021/12/29 05:20:28;;;;;;;;;;;8.90;99.90;;;;;;5032281;28;19913;-72
2021/12/29 05:22:54;;;;;;;;;;;8.90;99.90;;;;;;5033692;28;20251;-73
2021/12/29 05:25:20;;;;;;;;;;;9.00;99.90;;;;;;5025865;28;19924;-71
2021/12/29 05:27:45;;;;;;;;;;;9.00;99.90;;;;;;5025883;28;20349;-70
2021/12/29 05:30:11;;;;;;;;;;;8.90;99.90;;;;;;5020316;28;19917;-70
2021/12/29 05:32:37;;;;;;;;;;;9.00;99.90;;;;;;5028772;28;19948;-71
2021/12/29 05:35:02;;;;;;;;;;;9.00;99.90;;;;;;5027133;28;19909;-70
2021/12/29 05:37:28;;;;;;;;;;;9.00;99.90;;;;;;5025538;28;20301;-71
2021/12/29 05:39:53;;;;;;;;;;;9.00;99.90;;;;;;5022799;28;20373;-71
2021/12/29 05:42:19;;;;;;;;;;;9.00;99.90;;;;;;5035743;28;19912;-70
2021/12/29 05:44:44;;;;;;;;;;;9.10;99.90;;;;;;5027147;28;20035;-70
2021/12/29 05:47:10;;;;;;;;;;;9.10;99.90;;;;;;5024475;28;19939;-71
2021/12/29 05:49:35;;;;;;;;;;;9.10;99.90;;;;;;5024787;28;19913;-70
2021/12/29 05:52:01;;;;;;;;;;;9.20;99.90;;;;;;5011594;28;19914;-70
2021/12/29 05:54:27;;;;;;;;;;;9.20;99.90;;;;;;5018810;28;20179;-69
2021/12/29 05:56:53;;;;;;;;;;;9.10;99.90;;;;;;5022169;28;19924;-69
2021/12/29 05:59:18;;;;;;;;;;;9.10;99.90;;;;;;5025699;28;19925;-71
2021/12/29 06:01:44;;;;;;;;;;;9.00;99.90;;;;;;5039530;28;19909;-67
2021/12/29 06:04:10;;;;;;;;;;;9.00;99.90;;;;;;5030573;28;20393;-68
2021/12/29 06:06:36;;;;;;;;;;;9.00;99.90;;;;;;5058083;28;19940;-71
2021/12/29 06:09:01;;;;;;;;;;;9.00;99.90;;;;;;5050565;28;19913;-70
2021/12/29 06:11:27;;;;;;;;;;;9.00;99.90;;;;;;5056476;28;20153;-71
2021/12/29 06:13:52;;;;;;;;;;;9.10;99.90;;;;;;5063145;28;19913;-70
2021/12/29 06:16:18;;;;;;;;;;;9.10;99.90;;;;;;5061152;28;19913;-72
2021/12/29 06:18:43;;;;;;;;;;;9.00;99.90;;;;;;5040979;28;19914;-71
2021/12/29 06:21:16;;;;;;;;;;;9.00;99.90;;;;;;5029018;28;19919;-71
2021/12/29 06:23:42;;;;;;;;;;;9.00;99.90;;;;;;5027024;28;20008;-71
2021/12/29 06:26:08;;;;;;;;;;;9.00;99.90;;;;;;5035149;28;19921;-69
2021/12/29 06:28:33;;;;;;;;;;;8.90;99.90;;;;;;5024065;28;20370;-71
2021/12/29 06:30:58;;;;;;;;;;;8.90;99.90;;;;;;5026324;28;19939;-71
2021/12/29 06:33:24;;;;;;;;;;;8.90;99.90;;;;;;5018137;28;20290;-70
2021/12/29 06:35:50;;;;;;;;;;;8.90;99.90;;;;;;5026325;28;19956;-69
2021/12/29 06:38:15;;;;;;;;;;;8.90;99.90;;;;;;5033600;28;19917;-68
2021/12/29 06:40:41;;;;;;;;;;;8.90;99.90;;;;;;5064251;28;20123;-68
2021/12/29 06:43:07;;;;;;;;;;;9.00;99.90;;;;;;5037291;28;19913;-68
2021/12/29 06:45:32;;;;;;;;;;;8.90;99.90;;;;;;5041994;28;19951;-69
2021/12/29 06:47:58;;;;;;;;;;;8.90;99.90;;;;;;5051007;28;19960;-70
2021/12/29 06:50:24;;;;;;;;;;;8.90;99.90;;;;;;5050624;28;19913;-69
2021/12/29 06:52:49;;;;;;;;;;;8.90;99.90;;;;;;5043396;28;20240;-69
2021/12/29 06:55:15;;;;;;;;;;;8.90;99.90;;;;;;5042304;28;19976;-70
2021/12/29 06:57:40;;;;;;;;;;;8.90;99.90;;;;;;5044114;28;20003;-71
2021/12/29 07:00:06;;;;;;;;;;;8.90;99.90;;;;;;5039405;28;19993;-71
2021/12/29 07:02:32;;;;;;;;;;;8.90;99.90;;;;;;5015609;28;19909;-70
2021/12/29 07:04:57;;;;;;;;;;;9.00;99.90;;;;;;5026393;28;20026;-70
2021/12/29 07:07:23;;;;;;;;;;;8.90;99.90;;;;;;5026658;28;19909;-71
2021/12/29 07:09:48;;;;;;;;;;;8.90;99.90;;;;;;5026018;28;19916;-70
2021/12/29 07:12:14;;;;;;;;;;;9.00;99.90;;;;;;5027356;28;19953;-70
2021/12/29 07:14:39;;;;;;;;;;;8.90;99.90;;;;;;5008554;28;19913;-71
2021/12/29 07:17:05;;;;;;;;;;;8.90;99.90;;;;;;5026357;28;19921;-72
2021/12/29 07:19:31;;;;;;;;;;;8.90;99.90;;;;;;5027053;28;19971;-71
2021/12/29 07:22:00;;;;;;;;;;;8.90;99.90;;;;;;5026297;28;20473;-70
2021/12/29 07:24:25;;;;;;;;;;;8.80;99.90;;;;;;5008619;28;20324;-70
2021/12/29 07:26:51;;;;;;;;;;;8.90;99.90;;;;;;5027806;28;19927;-70
2021/12/29 07:29:16;;;;;;;;;;;8.90;99.90;;;;;;5039034;28;20240;-69
2021/12/29 07:31:42;;;;;;;;;;;8.90;99.90;;;;;;5030838;28;19909;-69
2021/12/29 07:34:07;;;;;;;;;;;8.90;99.90;;;;;;5031387;28;20353;-70
2021/12/29 07:36:33;;;;;;;;;;;8.90;99.90;;;;;;5031226;28;19913;-70
2021/12/29 07:38:59;;;;;;;;;;;8.90;99.90;;;;;;5030328;28;19919;-69
2021/12/29 07:41:24;;;;;;;;;;;8.90;99.90;;;;;;5033204;28;19909;-71
2021/12/29 07:43:51;;;;;;;;;;;9.00;99.90;;;;;;5035492;28;19940;-71
2021/12/29 07:46:16;;;;;;;;;;;9.10;99.90;;;;;;5037357;28;19910;-70
2021/12/29 07:48:42;;;;;;;;;;;9.10;99.90;;;;;;5032405;28;19913;-71
2021/12/29 07:51:09;;;;;;;;;;;9.10;99.90;;;;;;5041140;28;20147;-70
2021/12/29 07:53:37;;;;;;;;;;;9.10;99.90;;;;;;5036175;28;19920;-72
2021/12/29 07:56:04;;;;;;;;;;;9.10;99.90;;;;;;5035539;28;19920;-71
2021/12/29 07:58:31;;;;;;;;;;;9.10;99.90;;;;;;5032161;28;20003;-71
2021/12/29 08:00:57;;;;;;;;;;;9.10;99.90;;;;;;5029731;28;19919;-69
2021/12/29 08:03:23;;;;;;;;;;;9.10;99.90;;;;;;5027845;28;19909;-70
2021/12/29 08:05:48;;;;;;;;;;;9.10;99.90;;;;;;5043617;28;19910;-68
2021/12/29 08:08:14;;;;;;;;;;;9.20;99.90;;;;;;5026329;28;20305;-72
2021/12/29 08:10:39;;;;;;;;;;;9.20;99.90;;;;;;5027611;28;19960;-70
2021/12/29 08:13:06;;;;;;;;;;;9.10;99.90;;;;;;5026548;28;20282;-72
2021/12/29 08:15:32;;;;;;;;;;;9.10;99.90;;;;;;5024544;28;20450;-71
2021/12/29 08:17:58;;;;;;;;;;;9.10;99.90;;;;;;5026229;28;19916;-70
2021/12/29 08:20:24;;;;;;;;;;;9.20;99.90;;;;;;5033395;28;19909;-71
2021/12/29 08:22:51;;;;;;;;;;;9.20;99.90;;;;;;5030478;28;20269;-70
2021/12/29 08:25:17;;;;;;;;;;;9.10;99.90;;;;;;5032968;28;19909;-69
2021/12/29 08:27:43;;;;;;;;;;;9.10;99.90;;;;;;5032161;28;20386;-71
2021/12/29 08:30:09;;;;;;;;;;;9.20;99.90;;;;;;5047643;28;19938;-70
2021/12/29 08:32:34;;;;;;;;;;;9.30;99.90;;;;;;5040091;28;19910;-70
2021/12/29 08:35:00;;;;;;;;;;;9.20;99.90;;;;;;5027071;28;19913;-69
2021/12/29 08:37:25;;;;;;;;;;;9.20;99.90;;;;;;5027050;28;19959;-69
2021/12/29 08:39:51;;;;;;;;;;;9.10;99.90;;;;;;5032343;28;20298;-69
2021/12/29 08:42:16;;;;;;;;;;;9.20;99.90;;;;;;5034725;28;19916;-71
2021/12/29 08:44:42;;;;;;;;;;;9.20;99.90;;;;;;5035303;28;19909;-68
2021/12/29 08:47:08;;;;;;;;;;;9.30;99.90;;;;;;5017644;28;20210;-71
2021/12/29 08:49:34;;;;;;;;;;;9.30;99.90;;;;;;5053906;28;19919;-70
2021/12/29 08:52:00;;;;;;;;;;;9.20;99.90;;;;;;5053316;28;20336;-69
2021/12/29 08:54:26;;;;;;;;;;;9.20;99.90;;;;;;5052108;28;19909;-69
2021/12/29 08:56:53;;;;;;;;;;;9.20;99.90;;;;;;5047301;28;19913;-69
2021/12/29 08:59:19;;;;;;;;;;;9.20;99.90;;;;;;5047093;28;19940;-68
2021/12/29 09:01:44;;;;;;;;;;;9.20;99.90;;;;;;5046916;28;19913;-72
2021/12/29 09:04:10;;;;;;;;;;;9.20;99.90;;;;;;5045739;28;19917;-70
2021/12/29 09:06:35;;;;;;;;;;;9.20;99.90;;;;;;5045925;28;19916;-69
2021/12/29 09:09:01;;;;;;;;;;;9.20;99.90;;;;;;5044348;28;20270;-73
2021/12/29 09:11:29;;;;;;;;;;;9.20;99.90;;;;;;5048660;28;19909;-75
2021/12/29 09:13:55;;;;;;;;;;;9.10;99.90;;;;;;5060384;28;19917;-76
2021/12/29 09:16:21;;;;;;;;;;;9.20;99.90;;;;;;5053447;28;19959;-69
2021/12/29 09:18:47;;;;;;;;;;;9.20;99.90;;;;;;5048757;28;19909;-70
2021/12/29 09:21:15;;;;;;;;;;;9.20;99.90;;;;;;5049526;28;19916;-70
2021/12/29 09:23:42;;;;;;;;;;;9.20;99.90;;;;;;5048940;28;19913;-71
2021/12/29 09:26:09;;;;;;;;;;;9.10;99.90;;;;;;5048505;28;20211;-70
2021/12/29 09:28:35;;;;;;;;;;;9.10;99.90;;;;;;5048059;28;19959;-70
2021/12/29 09:31:00;;;;;;;;;;;9.10;99.90;;;;;;5048857;28;19952;-73
2021/12/29 09:33:26;;;;;;;;;;;9.20;99.90;;;;;;5031126;28;19967;-69
2021/12/29 09:35:52;;;;;;;;;;;9.10;99.90;;;;;;5010780;28;20065;-71
2021/12/29 09:38:18;;;;;;;;;;;9.10;99.90;;;;;;5028747;28;19962;-69
2021/12/29 09:40:45;;;;;;;;;;;9.20;99.90;;;;;;5030001;28;20382;-70
2021/12/29 09:43:10;;;;;;;;;;;9.10;99.90;;;;;;5028778;28;20448;-71
2021/12/29 09:45:37;;;;;;;;;;;9.10;99.90;;;;;;5030927;28;19956;-70
2021/12/29 09:48:03;;;;;;;;;;;9.20;99.90;;;;;;5028759;28;19913;-69
2021/12/29 09:50:29;;;;;;;;;;;9.10;99.90;;;;;;5023348;28;20392;-70
2021/12/29 09:52:56;;;;;;;;;;;9.10;99.90;;;;;;5048264;28;19909;-69
2021/12/29 09:55:22;;;;;;;;;;;9.10;99.90;;;;;;5048617;28;19943;-70
2021/12/29 09:57:49;;;;;;;;;;;9.00;99.90;;;;;;5050008;28;19920;-71
2021/12/29 10:00:21;;;;;;;;;;;9.10;99.90;;;;;;5049619;28;19916;-69
2021/12/29 10:02:47;;;;;;;;;;;9.20;99.90;;;;;;5048811;28;20277;-72
2021/12/29 10:05:12;;;;;;;;;;;9.20;99.90;;;;;;5048730;28;19909;-71
2021/12/29 10:07:38;;;;;;;;;;;9.10;99.90;;;;;;5029655;28;19912;-71
2021/12/29 10:10:14;;;;;;;;;;;9.10;99.90;;;;;;5049073;28;19935;-69
2021/12/29 10:12:44;;;;;;;;;;;9.10;99.90;;;;;;5030415;28;19913;-69
2021/12/29 10:15:10;;;;;;;;;;;9.20;99.90;;;;;;5047386;28;20227;-69
2021/12/29 10:17:35;;;;;;;;;;;9.20;99.90;;;;;;5031160;28;19921;-71
2021/12/29 10:20:02;;;;;;;;;;;9.20;99.90;;;;;;5047968;28;19916;-70
2021/12/29 10:22:28;;;;;;;;;;;9.20;99.90;;;;;;5049144;28;19909;-71
2021/12/29 10:25:01;;;;;;;;;;;9.10;99.90;;;;;;5048533;28;20030;-70
2021/12/29 10:27:29;;;;;;;;;;;9.00;99.90;;;;;;5034946;28;19915;-70
2021/12/29 10:29:55;;;;;;;;;;;9.00;99.90;;;;;;5049973;28;20417;-71
2021/12/29 10:32:23;;;;;;;;;;;9.00;99.90;;;;;;5042609;28;19913;-69
2021/12/29 10:34:53;;;;;;;;;;;8.90;99.90;;;;;;5010492;28;19917;-68
2021/12/29 10:37:20;;;;;;;;;;;8.90;99.90;;;;;;5027534;28;20306;-70
2021/12/29 10:39:47;;;;;;;;;;;8.90;99.90;;;;;;5028536;28;19987;-70
2021/12/29 10:42:13;;;;;;;;;;;8.90;99.90;;;;;;5028490;28;20292;-69
2021/12/29 10:44:38;;;;;;;;;;;8.90;99.90;;;;;;5029589;28;20354;-69
2021/12/29 10:47:14;;;;;;;;;;;8.90;99.90;;;;;;5027612;28;20616;-70
2021/12/29 10:49:49;;;;;;;;;;;8.90;99.90;;;;;;5005175;28;19908;-70
2021/12/29 10:52:14;;;;;;;;;;;9.00;99.90;;;;;;5048627;28;19931;-69
2021/12/29 10:54:40;;;;;;;;;;;9.00;99.90;;;;;;5048449;28;20346;-71
2021/12/29 10:57:07;;;;;;;;;;;9.00;99.90;;;;;;5029537;28;19921;-69
2021/12/29 10:59:35;;;;;;;;;;;9.10;99.90;;;;;;5046511;28;19920;-72
2021/12/29 11:02:00;;;;;;;;;;;9.20;99.90;;;;;;5047052;28;20000;-70
2021/12/29 11:04:26;;;;;;;;;;;9.20;99.90;;;;;;5047713;28;19952;-70
2021/12/29 11:06:55;;;;;;;;;;;9.20;99.90;;;;;;5028862;28;19913;-71
2021/12/29 11:09:28;;;;;;;;;;;9.20;99.90;;;;;;5047040;28;19955;-72
2021/12/29 11:11:54;;;;;;;;;;;9.20;99.90;;;;;;5029587;28;19915;-70
2021/12/29 11:14:23;;;;;;;;;;;9.10;99.90;;;;;;5047748;28;19996;-69
2021/12/29 11:16:58;;;;;;;;;;;9.20;99.90;;;;;;5029667;28;20026;-69
2021/12/29 11:19:24;;;;;;;;;;;9.20;99.90;;;;;;5047216;28;19944;-70
2021/12/29 11:21:49;;;;;;;;;;;9.30;99.90;;;;;;5047078;28;20204;-72
2021/12/29 11:24:25;;;;;;;;;;;9.30;99.90;;;;;;5049886;28;19926;-68
2021/12/29 11:26:51;;;;;;;;;;;9.20;99.90;;;;;;5053418;28;19912;-69
2021/12/29 11:29:20;;;;;;;;;;;9.30;99.90;;;;;;5056239;28;19963;-70
2021/12/29 11:31:59;;;;;;;;;;;9.30;99.90;;;;;;5056095;28;19913;-69
2021/12/29 11:34:26;;;;;;;;;;;9.30;99.90;;;;;;5045019;28;19990;-70
2021/12/29 11:37:09;;;;;;;;;;;9.30;99.90;;;;;;5018011;28;20417;-71
2021/12/29 11:39:36;;;;;;;;;;;9.30;99.90;;;;;;5035888;28;19909;-70
2021/12/29 11:42:02;;;;;;;;;;;9.30;99.90;;;;;;5038983;28;20301;-73
2021/12/29 11:44:28;;;;;;;;;;;9.20;99.90;;;;;;5040240;28;19936;-70
2021/12/29 11:46:54;;;;;;;;;;;9.20;99.90;;;;;;5030394;28;19909;-69
2021/12/29 11:49:20;;;;;;;;;;;9.20;99.90;;;;;;5030770;28;19909;-73
2021/12/29 11:52:21;;;;;;;;;;;9.20;99.90;;;;;;5030033;28;20020;-71
2021/12/29 11:54:49;;;;;;;;;;;9.20;99.90;;;;;;4987875;28;20076;-69
2021/12/29 11:57:16;;;;;;;;;;;9.20;99.90;;;;;;5017136;28;19913;-69
2021/12/29 11:59:42;;;;;;;;;;;9.30;99.90;;;;;;5027831;28;20385;-70
2021/12/29 12:02:07;;;;;;;;;;;9.20;99.90;;;;;;5042700;28;19984;-70
2021/12/29 12:04:33;;;;;;;;;;;9.30;99.90;;;;;;5038513;28;19963;-71
2021/12/29 12:07:04;;;;;;;;;;;9.20;99.90;;;;;;5010229;28;19913;-70
2021/12/29 12:09:42;;;;;;;;;;;9.30;99.90;;;;;;5028977;28;20271;-71
2021/12/29 12:12:08;;;;;;;;;;;9.30;99.90;;;;;;5028522;28;19992;-71
2021/12/29 12:14:36;;;;;;;;;;;9.30;99.90;;;;;;5028198;28;19916;-71
2021/12/29 12:17:08;;;;;;;;;;;9.30;99.90;;;;;;5027657;28;19913;-70
2021/12/29 12:19:34;;;;;;;;;;;9.20;99.90;;;;;;5027275;28;19913;-70
2021/12/29 12:22:11;;;;;;;;;;;9.30;99.90;;;;;;5026243;28;20354;-73
2021/12/29 12:24:38;;;;;;;;;;;9.30;99.90;;;;;;5025734;28;19913;-69
2021/12/29 12:27:05;;;;;;;;;;;9.30;99.90;;;;;;5008134;28;19921;-70
2021/12/29 12:29:32;;;;;;;;;;;9.20;99.90;;;;;;5031451;28;20283;-69
2021/12/29 12:32:27;;;;;;;;;;;9.30;99.90;;;;;;5031381;28;19960;-73
2021/12/29 12:34:52;;;;;;;;;;;9.30;99.90;;;;;;5012501;28;19960;-71
2021/12/29 12:37:20;;;;;;;;;;;9.30;99.90;;;;;;5026306;28;19917;-71
2021/12/29 12:39:53;;;;;;;;;;;9.30;99.90;;;;;;5026079;28;19913;-70
2021/12/29 12:42:19;;;;;;;;;;;9.30;99.90;;;;;;5009376;28;19996;-69
2021/12/29 12:44:44;;;;;;;;;;;9.40;99.90;;;;;;5026239;28;19952;-71
2021/12/29 12:47:14;;;;;;;;;;;9.30;99.90;;;;;;5026084;28;19913;-71
2021/12/29 12:49:50;;;;;;;;;;;9.40;99.90;;;;;;5016493;28;19917;-70
2021/12/29 12:52:16;;;;;;;;;;;9.40;99.90;;;;;;5029041;28;19916;-71
2021/12/29 12:54:49;;;;;;;;;;;9.50;99.90;;;;;;5029730;28;19909;-71
2021/12/29 12:57:28;;;;;;;;;;;9.50;99.90;;;;;;5029707;28;20225;-72
2021/12/29 13:00:03;;;;;;;;;;;9.50;99.90;;;;;;5029357;28;19913;-71
2021/12/29 13:02:35;;;;;;;;;;;9.50;99.90;;;;;;5030271;28;19956;-70
2021/12/29 13:05:00;;;;;;;;;;;9.50;99.90;;;;;;5032021;28;20521;-69
2021/12/29 13:07:26;;;;;;;;;;;9.40;99.90;;;;;;5032009;28;19916;-71
2021/12/29 13:09:52;;;;;;;;;;;9.40;99.90;;;;;;5034593;28;19916;-72
2021/12/29 13:12:31;;;;;;;;;;;9.40;99.90;;;;;;5041852;28;20365;-69
2021/12/29 13:15:02;;;;;;;;;;;9.40;99.90;;;;;;5037040;28;19909;-70
2021/12/29 13:17:28;;;;;;;;;;;9.40;99.90;;;;;;5041890;28;19980;-71
2021/12/29 13:19:54;;;;;;;;;;;9.40;99.90;;;;;;5037366;28;20451;-71
2021/12/29 13:22:27;;;;;;;;;;;9.50;99.90;;;;;;5037300;28;20270;-70
2021/12/29 13:24:52;;;;;;;;;;;9.40;99.90;;;;;;5029703;28;19995;-72
2021/12/29 13:27:21;;;;;;;;;;;9.50;99.90;;;;;;5029879;28;20366;-70
2021/12/29 13:30:00;;;;;;;;;;;9.50;99.90;;;;;;5044101;28;19920;-72
2021/12/29 13:32:26;;;;;;;;;;;9.50;99.90;;;;;;5041880;28;20418;-71
2021/12/29 13:35:06;;;;;;;;;;;9.50;99.90;;;;;;5011218;28;19917;-69
2021/12/29 13:37:32;;;;;;;;;;;9.40;99.90;;;;;;5030545;28;19913;-73
2021/12/29 13:39:58;;;;;;;;;;;9.40;99.90;;;;;;5031069;28;19909;-69
2021/12/29 13:42:24;;;;;;;;;;;9.40;99.90;;;;;;5031755;28;19909;-71
2021/12/29 13:44:50;;;;;;;;;;;9.30;99.90;;;;;;5030764;28;20000;-71
2021/12/29 13:47:22;;;;;;;;;;;9.40;99.90;;;;;;5032903;28;20311;-72
2021/12/29 13:49:48;;;;;;;;;;;9.40;99.90;;;;;;5034440;28;19924;-70
2021/12/29 13:52:14;;;;;;;;;;;9.40;99.90;;;;;;5018558;28;20346;-73
2021/12/29 13:54:39;;;;;;;;;;;9.40;99.90;;;;;;5011475;28;19909;-70
2021/12/29 13:57:05;;;;;;;;;;;9.30;99.90;;;;;;5011085;28;19913;-70
2021/12/29 13:59:30;;;;;;;;;;;9.30;99.90;;;;;;5028377;28;19997;-71
2021/12/29 14:02:01;;;;;;;;;;;9.30;99.90;;;;;;5027986;28;20291;-72
2021/12/29 14:04:29;;;;;;;;;;;9.30;99.90;;;;;;5010960;28;19913;-72
2021/12/29 14:06:56;;;;;;;;;;;9.30;99.90;;;;;;5012459;28;19909;-71
2021/12/29 14:09:22;;;;;;;;;;;9.30;99.90;;;;;;5028239;28;20394;-71
2021/12/29 14:11:48;;;;;;;;;;;9.30;99.90;;;;;;5037374;28;19996;-71
2021/12/29 14:14:13;;;;;;;;;;;9.30;99.90;;;;;;5032421;28;19909;-72
2021/12/29 14:16:53;;;;;;;;;;;9.30;99.90;;;;;;5038890;28;19920;-70
2021/12/29 14:19:23;;;;;;;;;;;9.40;99.90;;;;;;5024488;28;19910;-70
2021/12/29 14:21:48;;;;;;;;;;;9.40;99.90;;;;;;5043230;28;19920;-70
2021/12/29 14:24:15;;;;;;;;;;;9.40;99.90;;;;;;5032674;28;20021;-71
2021/12/29 14:26:42;;;;;;;;;;;9.40;99.90;;;;;;5014230;28;20202;-71
2021/12/29 14:29:08;;;;;;;;;;;9.40;99.90;;;;;;5030751;28;19917;-73
2021/12/29 14:31:35;;;;;;;;;;;9.40;99.90;;;;;;5032584;28;20577;-70
2021/12/29 14:34:02;;;;;;;;;;;9.40;99.90;;;;;;5042894;28;19943;-69
2021/12/29 14:36:42;;;;;;;;;;;9.40;99.90;;;;;;5042419;28;19917;-69